sensor_id;sensor_type;location;lat;lon;timestamp;pressure;altitude;pressure_sealevel;temperature;humidity
34979;BME280;21185;50.978;13.720;2023-03-31T00:04:57;97492.34;;;11.26;70.61
34979;BME280;21185;50.978;13.720;2023-03-31T00:10:00;97486.78;;;11.29;70.53
34979;BME280;21185;50.978;13.720;2023-03-31T00:15:19;97482.19;;;11.31;70.49
34979;BME280;21185;50.978;13.720;2023-03-31T00:20:21;97474.41;;;11.31;70.56
34979;BME280;21185;50.978;13.720;2023-03-31T00:25:23;97461.78;;;11.28;70.48
34979;BME280;21185;50.978;13.720;2023-03-31T00:30:25;97458.59;;;11.26;70.43
34979;BME280;21185;50.978;13.720;2023-03-31T00:35:27;97461.97;;;11.26;70.56
34979;BME280;21185;50.978;13.720;2023-03-31T00:40:29;97456.78;;;11.26;70.55
34979;BME280;21185;50.978;13.720;2023-03-31T00:45:31;97447.56;;;11.24;70.66
34979;BME280;21185;50.978;13.720;2023-03-31T00:50:47;97437.81;;;11.26;70.75
34979;BME280;21185;50.978;13.720;2023-03-31T00:55:52;97424.03;;;11.25;70.90
34979;BME280;21185;50.978;13.720;2023-03-31T01:00:56;97418.63;;;11.27;70.70
34979;BME280;21185;50.978;13.720;2023-03-31T01:06:02;97416.03;;;11.27;70.65
34979;BME280;21185;50.978;13.720;2023-03-31T01:11:09;97406.03;;;11.24;70.63
34979;BME280;21185;50.978;13.720;2023-03-31T01:16:13;97393.59;;;11.19;70.78
34979;BME280;21185;50.978;13.720;2023-03-31T01:27:04;97381.38;;;11.13;70.79
34979;BME280;21185;50.978;13.720;2023-03-31T01:43:16;97369.09;;;11.00;70.94
34979;BME280;21185;50.978;13.720;2023-03-31T01:48:31;97346.91;;;10.98;70.80
34979;BME280;21185;50.978;13.720;2023-03-31T01:59:10;97333.06;;;10.91;70.95
34979;BME280;21185;50.978;13.720;2023-03-31T02:04:21;97330.84;;;10.88;70.74
34979;BME280;21185;50.978;13.720;2023-03-31T02:09:28;97323.06;;;10.88;70.77
34979;BME280;21185;50.978;13.720;2023-03-31T02:14:37;97311.25;;;10.85;70.77
34979;BME280;21185;50.978;13.720;2023-03-31T02:19:43;97304.66;;;10.83;70.61
34979;BME280;21185;50.978;13.720;2023-03-31T02:24:48;97306.81;;;10.79;70.75
34979;BME280;21185;50.978;13.720;2023-03-31T02:29:52;97300.81;;;10.79;70.86
34979;BME280;21185;50.978;13.720;2023-03-31T02:34:55;97290.00;;;10.75;70.81
34979;BME280;21185;50.978;13.720;2023-03-31T02:39:59;97280.44;;;10.76;71.00
34979;BME280;21185;50.978;13.720;2023-03-31T02:45:38;97285.63;;;10.76;71.01
34979;BME280;21185;50.978;13.720;2023-03-31T02:50:33;97275.06;;;10.77;71.02
34979;BME280;21185;50.978;13.720;2023-03-31T03:01:13;97270.47;;;10.79;70.94
34979;BME280;21185;50.978;13.720;2023-03-31T03:22:22;97251.94;;;10.82;71.00
34979;BME280;21185;50.978;13.720;2023-03-31T03:27:24;97241.56;;;10.82;70.95
34979;BME280;21185;50.978;13.720;2023-03-31T03:32:25;97243.16;;;10.83;70.89
34979;BME280;21185;50.978;13.720;2023-03-31T03:37:29;97230.19;;;10.83;70.95
34979;BME280;21185;50.978;13.720;2023-03-31T03:42:32;97221.59;;;10.83;70.88
34979;BME280;21185;50.978;13.720;2023-03-31T03:47:34;97224.19;;;10.83;70.84
34979;BME280;21185;50.978;13.720;2023-03-31T03:52:36;97220.63;;;10.84;70.83
34979;BME280;21185;50.978;13.720;2023-03-31T03:57:38;97214.44;;;10.85;70.90
34979;BME280;21185;50.978;13.720;2023-03-31T04:02:43;97205.47;;;10.87;70.97
34979;BME280;21185;50.978;13.720;2023-03-31T04:07:45;97195.69;;;10.89;70.93
34979;BME280;21185;50.978;13.720;2023-03-31T04:12:47;97186.91;;;10.90;70.89
34979;BME280;21185;50.978;13.720;2023-03-31T04:17:49;97177.53;;;10.89;70.94
34979;BME280;21185;50.978;13.720;2023-03-31T04:22:51;97180.13;;;10.89;71.05
34979;BME280;21185;50.978;13.720;2023-03-31T04:27:53;97166.91;;;10.84;71.03
34979;BME280;21185;50.978;13.720;2023-03-31T04:33:00;97163.72;;;10.82;70.88
34979;BME280;21185;50.978;13.720;2023-03-31T04:38:03;97154.31;;;10.81;71.08
34979;BME280;21185;50.978;13.720;2023-03-31T04:43:05;97148.34;;;10.81;71.07
34979;BME280;21185;50.978;13.720;2023-03-31T04:48:07;97145.53;;;10.82;70.94
34979;BME280;21185;50.978;13.720;2023-03-31T04:53:09;97132.19;;;10.85;71.02
34979;BME280;21185;50.978;13.720;2023-03-31T04:58:11;97122.22;;;10.89;71.03
34979;BME280;21185;50.978;13.720;2023-03-31T05:03:13;97114.06;;;10.92;71.28
34979;BME280;21185;50.978;13.720;2023-03-31T05:08:15;97118.88;;;10.95;70.94
34979;BME280;21185;50.978;13.720;2023-03-31T05:13:17;97104.88;;;10.96;70.91
34979;BME280;21185;50.978;13.720;2023-03-31T05:18:19;97096.31;;;10.95;70.99
34979;BME280;21185;50.978;13.720;2023-03-31T05:23:21;97103.28;;;10.95;71.02
34979;BME280;21185;50.978;13.720;2023-03-31T05:28:23;97092.91;;;10.95;71.20
34979;BME280;21185;50.978;13.720;2023-03-31T05:33:25;97077.34;;;10.95;71.07
34979;BME280;21185;50.978;13.720;2023-03-31T05:38:27;97072.94;;;10.95;71.07
34979;BME280;21185;50.978;13.720;2023-03-31T05:43:29;97053.41;;;10.99;71.14
34979;BME280;21185;50.978;13.720;2023-03-31T05:48:31;97060.78;;;11.02;71.07
34979;BME280;21185;50.978;13.720;2023-03-31T05:53:33;97045.03;;;11.04;71.08
34979;BME280;21185;50.978;13.720;2023-03-31T05:58:36;97036.84;;;11.07;71.21
34979;BME280;21185;50.978;13.720;2023-03-31T06:03:40;97025.88;;;11.12;71.17
34979;BME280;21185;50.978;13.720;2023-03-31T06:08:44;97014.72;;;11.18;71.14
34979;BME280;21185;50.978;13.720;2023-03-31T06:13:47;97014.91;;;11.23;71.10
34979;BME280;21185;50.978;13.720;2023-03-31T06:18:49;97005.94;;;11.32;71.28
34979;BME280;21185;50.978;13.720;2023-03-31T06:23:52;96998.16;;;11.39;71.24
34979;BME280;21185;50.978;13.720;2023-03-31T06:28:56;96989.19;;;11.41;71.31
34979;BME280;21185;50.978;13.720;2023-03-31T06:33:58;96986.59;;;11.48;71.39
34979;BME280;21185;50.978;13.720;2023-03-31T06:39:00;96978.00;;;11.60;71.33
34979;BME280;21185;50.978;13.720;2023-03-31T06:44:02;96975.44;;;11.80;71.28
34979;BME280;21185;50.978;13.720;2023-03-31T06:49:04;96978.59;;;12.02;71.35
34979;BME280;21185;50.978;13.720;2023-03-31T06:54:06;96961.97;;;12.23;70.82
34979;BME280;21185;50.978;13.720;2023-03-31T06:59:08;96959.28;;;12.43;70.74
34979;BME280;21185;50.978;13.720;2023-03-31T07:04:10;96952.06;;;12.51;70.49
34979;BME280;21185;50.978;13.720;2023-03-31T07:09:12;96956.66;;;12.56;70.36
34979;BME280;21185;50.978;13.720;2023-03-31T07:14:14;96952.44;;;12.55;70.51
34979;BME280;21185;50.978;13.720;2023-03-31T07:19:16;96950.66;;;12.49;70.44
34979;BME280;21185;50.978;13.720;2023-03-31T07:24:18;96942.28;;;12.47;70.33
34979;BME280;21185;50.978;13.720;2023-03-31T07:29:20;96936.84;;;12.48;70.53
34979;BME280;21185;50.978;13.720;2023-03-31T07:34:22;96919.19;;;12.63;70.38
34979;BME280;21185;50.978;13.720;2023-03-31T07:39:24;96909.66;;;12.82;70.08
34979;BME280;21185;50.978;13.720;2023-03-31T07:44:26;96906.78;;;12.97;70.00
34979;BME280;21185;50.978;13.720;2023-03-31T07:49:28;96892.66;;;13.11;69.77
34979;BME280;21185;50.978;13.720;2023-03-31T07:54:31;96888.25;;;13.12;69.72
34979;BME280;21185;50.978;13.720;2023-03-31T07:59:33;96891.84;;;13.11;69.45
34979;BME280;21185;50.978;13.720;2023-03-31T08:04:35;96882.88;;;13.07;69.63
34979;BME280;21185;50.978;13.720;2023-03-31T08:09:37;96879.09;;;13.03;69.42
34979;BME280;21185;50.978;13.720;2023-03-31T08:14:40;96888.34;;;12.98;69.27
34979;BME280;21185;50.978;13.720;2023-03-31T08:19:45;96887.75;;;12.96;69.38
34979;BME280;21185;50.978;13.720;2023-03-31T08:24:47;96892.31;;;13.01;69.19
34979;BME280;21185;50.978;13.720;2023-03-31T08:29:49;96892.28;;;13.08;69.32
34979;BME280;21185;50.978;13.720;2023-03-31T08:34:51;96889.47;;;13.09;69.16
34979;BME280;21185;50.978;13.720;2023-03-31T08:39:54;96879.91;;;13.03;69.08
34979;BME280;21185;50.978;13.720;2023-03-31T08:50:29;96870.97;;;12.92;68.88
34979;BME280;21185;50.978;13.720;2023-03-31T08:55:54;96855.16;;;12.87;68.93
34979;BME280;21185;50.978;13.720;2023-03-31T09:01:40;96854.00;;;12.83;68.64
34979;BME280;21185;50.978;13.720;2023-03-31T09:07:29;96848.41;;;12.80;68.66
34979;BME280;21185;50.978;13.720;2023-03-31T09:28:53;96824.44;;;12.71;69.19
34979;BME280;21185;50.978;13.720;2023-03-31T09:34:00;96815.63;;;12.72;69.41
34979;BME280;21185;50.978;13.720;2023-03-31T09:39:03;96807.19;;;12.77;69.43
34979;BME280;21185;50.978;13.720;2023-03-31T09:44:24;96791.38;;;12.78;69.43
34979;BME280;21185;50.978;13.720;2023-03-31T09:49:28;96789.13;;;12.82;69.74
34979;BME280;21185;50.978;13.720;2023-03-31T09:54:38;96786.09;;;12.85;69.78
34979;BME280;21185;50.978;13.720;2023-03-31T09:59:42;96790.31;;;12.86;69.74
34979;BME280;21185;50.978;13.720;2023-03-31T10:04:45;96774.72;;;12.79;69.66
34979;BME280;21185;50.978;13.720;2023-03-31T10:09:47;96765.75;;;12.75;69.41
34979;BME280;21185;50.978;13.720;2023-03-31T10:14:52;96767.19;;;12.71;69.21
34979;BME280;21185;50.978;13.720;2023-03-31T10:20:18;96758.22;;;12.67;69.39
34979;BME280;21185;50.978;13.720;2023-03-31T10:25:23;96748.44;;;12.62;69.50
34979;BME280;21185;50.978;13.720;2023-03-31T10:30:34;96751.63;;;12.64;69.52
34979;BME280;21185;50.978;13.720;2023-03-31T10:35:39;96737.03;;;12.63;69.71
34979;BME280;21185;50.978;13.720;2023-03-31T10:40:51;96726.81;;;12.62;69.79
34979;BME280;21185;50.978;13.720;2023-03-31T10:45:58;96718.81;;;12.63;69.84
34979;BME280;21185;50.978;13.720;2023-03-31T10:51:16;96713.38;;;12.65;70.01
34979;BME280;21185;50.978;13.720;2023-03-31T11:06:43;96699.22;;;12.61;70.28
34979;BME280;21185;50.978;13.720;2023-03-31T11:12:45;96689.81;;;12.60;70.73
34979;BME280;21185;50.978;13.720;2023-03-31T11:17:48;96678.81;;;12.58;70.65
34979;BME280;21185;50.978;13.720;2023-03-31T11:23:41;96676.81;;;12.60;71.03
34979;BME280;21185;50.978;13.720;2023-03-31T11:44:26;96631.06;;;12.27;71.62
34979;BME280;21185;50.978;13.720;2023-03-31T11:49:36;96613.13;;;12.19;71.62
34979;BME280;21185;50.978;13.720;2023-03-31T11:55:02;96615.19;;;12.11;71.88
34979;BME280;21185;50.978;13.720;2023-03-31T12:05:16;96608.50;;;11.96;72.06
34979;BME280;21185;50.978;13.720;2023-03-31T12:10:21;96592.69;;;11.98;71.97
34979;BME280;21185;50.978;13.720;2023-03-31T12:15:24;96588.50;;;11.97;72.08
34979;BME280;21185;50.978;13.720;2023-03-31T12:20:32;96581.28;;;11.99;72.04
34979;BME280;21185;50.978;13.720;2023-03-31T12:31:06;96563.81;;;12.06;71.95
34979;BME280;21185;50.978;13.720;2023-03-31T12:57:37;96525.31;;;11.96;72.24
34979;BME280;21185;50.978;13.720;2023-03-31T13:02:39;96518.47;;;12.02;72.34
34979;BME280;21185;50.978;13.720;2023-03-31T13:07:42;96506.47;;;12.01;72.39
34979;BME280;21185;50.978;13.720;2023-03-31T13:13:11;96496.66;;;12.03;72.59
34979;BME280;21185;50.978;13.720;2023-03-31T13:18:19;96494.06;;;12.03;72.60
34979;BME280;21185;50.978;13.720;2023-03-31T13:23:23;96482.44;;;12.06;72.67
34979;BME280;21185;50.978;13.720;2023-03-31T13:28:37;96468.94;;;12.15;72.87
34979;BME280;21185;50.978;13.720;2023-03-31T13:39:02;96446.97;;;12.66;72.81
34979;BME280;21185;50.978;13.720;2023-03-31T13:44:37;96446.56;;;12.81;72.73
34979;BME280;21185;50.978;13.720;2023-03-31T14:11:22;96446.97;;;12.66;71.79
34979;BME280;21185;50.978;13.720;2023-03-31T14:16:27;96437.00;;;12.63;71.45
34979;BME280;21185;50.978;13.720;2023-03-31T14:21:41;96425.25;;;12.72;71.41
34979;BME280;21185;50.978;13.720;2023-03-31T14:37:15;96421.59;;;12.91;70.93
34979;BME280;21185;50.978;13.720;2023-03-31T14:42:26;96431.31;;;12.84;70.83
34979;BME280;21185;50.978;13.720;2023-03-31T14:47:30;96422.59;;;12.90;71.06
34979;BME280;21185;50.978;13.720;2023-03-31T14:52:32;96411.06;;;13.16;71.09
34979;BME280;21185;50.978;13.720;2023-03-31T14:57:38;96406.53;;;13.23;70.84
34979;BME280;21185;50.978;13.720;2023-03-31T15:02:44;96385.34;;;13.20;71.31
34979;BME280;21185;50.978;13.720;2023-03-31T15:07:47;96394.41;;;13.17;71.58
34979;BME280;21185;50.978;13.720;2023-03-31T15:12:50;96388.59;;;13.15;71.50
34979;BME280;21185;50.978;13.720;2023-03-31T15:17:53;96400.69;;;13.10;71.40
34979;BME280;21185;50.978;13.720;2023-03-31T15:22:56;96403.75;;;13.07;71.49
34979;BME280;21185;50.978;13.720;2023-03-31T15:28:06;96403.84;;;13.00;71.55
34979;BME280;21185;50.978;13.720;2023-03-31T15:33:36;96397.94;;;12.93;71.80
34979;BME280;21185;50.978;13.720;2023-03-31T15:38:43;96391.03;;;12.87;71.73
34979;BME280;21185;50.978;13.720;2023-03-31T15:43:47;96389.56;;;12.91;71.61
34979;BME280;21185;50.978;13.720;2023-03-31T15:48:53;96384.59;;;13.01;71.44
34979;BME280;21185;50.978;13.720;2023-03-31T15:53:56;96384.19;;;13.16;71.16
34979;BME280;21185;50.978;13.720;2023-03-31T15:58:59;96372.34;;;13.32;71.09
34979;BME280;21185;50.978;13.720;2023-03-31T16:04:12;96372.69;;;13.35;70.46
34979;BME280;21185;50.978;13.720;2023-03-31T16:14:30;96367.59;;;13.28;69.85
34979;BME280;21185;50.978;13.720;2023-03-31T16:19:47;96361.69;;;13.21;69.50
34979;BME280;21185;50.978;13.720;2023-03-31T16:24:50;96359.94;;;13.15;69.61
34979;BME280;21185;50.978;13.720;2023-03-31T16:30:06;96375.47;;;13.10;69.13
34979;BME280;21185;50.978;13.720;2023-03-31T16:35:09;96378.16;;;13.04;69.23
34979;BME280;21185;50.978;13.720;2023-03-31T16:40:12;96403.38;;;12.91;68.22
34979;BME280;21185;50.978;13.720;2023-03-31T16:45:14;96413.25;;;12.71;67.93
34979;BME280;21185;50.978;13.720;2023-03-31T16:50:17;96419.50;;;12.52;67.73
34979;BME280;21185;50.978;13.720;2023-03-31T16:55:19;96427.34;;;12.33;68.59
34979;BME280;21185;50.978;13.720;2023-03-31T17:00:21;96425.47;;;12.22;68.88
34979;BME280;21185;50.978;13.720;2023-03-31T17:05:24;96427.34;;;12.15;69.62
34979;BME280;21185;50.978;13.720;2023-03-31T17:10:26;96427.41;;;12.09;69.88
34979;BME280;21185;50.978;13.720;2023-03-31T17:15:29;96414.50;;;12.02;69.78
34979;BME280;21185;50.978;13.720;2023-03-31T17:20:31;96421.34;;;11.96;69.98
34979;BME280;21185;50.978;13.720;2023-03-31T17:25:34;96415.84;;;11.86;69.98
34979;BME280;21185;50.978;13.720;2023-03-31T17:30:36;96421.91;;;11.80;69.92
34979;BME280;21185;50.978;13.720;2023-03-31T17:35:41;96423.53;;;11.75;69.87
34979;BME280;21185;50.978;13.720;2023-03-31T17:40:43;96424.38;;;11.68;69.87
34979;BME280;21185;50.978;13.720;2023-03-31T17:45:46;96427.63;;;11.64;69.81
34979;BME280;21185;50.978;13.720;2023-03-31T17:50:48;96442.84;;;11.60;69.87
34979;BME280;21185;50.978;13.720;2023-03-31T17:55:49;96442.25;;;11.58;69.84
34979;BME280;21185;50.978;13.720;2023-03-31T18:00:51;96450.03;;;11.58;69.80
34979;BME280;21185;50.978;13.720;2023-03-31T18:05:53;96445.66;;;11.59;69.74
34979;BME280;21185;50.978;13.720;2023-03-31T18:10:55;96452.84;;;11.57;69.62
34979;BME280;21185;50.978;13.720;2023-03-31T18:15:57;96462.88;;;11.53;69.74
34979;BME280;21185;50.978;13.720;2023-03-31T18:21:04;96466.47;;;11.52;69.67
34979;BME280;21185;50.978;13.720;2023-03-31T18:26:08;96472.69;;;11.51;69.73
34979;BME280;21185;50.978;13.720;2023-03-31T18:31:11;96469.72;;;11.48;69.70
34979;BME280;21185;50.978;13.720;2023-03-31T18:36:17;96475.13;;;11.46;69.63
34979;BME280;21185;50.978;13.720;2023-03-31T18:41:20;96478.94;;;11.44;69.51
34979;BME280;21185;50.978;13.720;2023-03-31T18:46:23;96479.13;;;11.42;69.41
34979;BME280;21185;50.978;13.720;2023-03-31T18:51:25;96483.31;;;11.43;69.27
34979;BME280;21185;50.978;13.720;2023-03-31T18:56:27;96481.31;;;11.45;69.19
34979;BME280;21185;50.978;13.720;2023-03-31T19:01:29;96484.50;;;11.47;69.25
34979;BME280;21185;50.978;13.720;2023-03-31T19:06:33;96487.69;;;11.49;69.32
34979;BME280;21185;50.978;13.720;2023-03-31T19:11:36;96484.88;;;11.51;69.08
34979;BME280;21185;50.978;13.720;2023-03-31T19:16:38;96494.47;;;11.50;69.26
34979;BME280;21185;50.978;13.720;2023-03-31T19:21:43;96491.06;;;11.50;69.08
34979;BME280;21185;50.978;13.720;2023-03-31T19:26:45;96489.69;;;11.47;69.30
34979;BME280;21185;50.978;13.720;2023-03-31T19:31:48;96503.69;;;11.46;69.37
34979;BME280;21185;50.978;13.720;2023-03-31T19:36:50;96498.91;;;11.43;69.64
34979;BME280;21185;50.978;13.720;2023-03-31T19:41:52;96486.56;;;11.39;69.69
34979;BME280;21185;50.978;13.720;2023-03-31T19:46:54;96486.19;;;11.35;69.87
34979;BME280;21185;50.978;13.720;2023-03-31T19:51:56;96484.38;;;11.35;70.08
34979;BME280;21185;50.978;13.720;2023-03-31T19:56:57;96487.97;;;11.34;70.08
34979;BME280;21185;50.978;13.720;2023-03-31T20:02:00;96489.78;;;11.34;70.17
34979;BME280;21185;50.978;13.720;2023-03-31T20:07:06;96494.19;;;11.33;70.11
34979;BME280;21185;50.978;13.720;2023-03-31T20:12:07;96495.41;;;11.31;69.96
34979;BME280;21185;50.978;13.720;2023-03-31T20:17:09;96483.63;;;11.28;69.88
34979;BME280;21185;50.978;13.720;2023-03-31T20:22:13;96490.63;;;11.28;69.92
34979;BME280;21185;50.978;13.720;2023-03-31T20:27:15;96483.03;;;11.26;69.83
34979;BME280;21185;50.978;13.720;2023-03-31T20:32:17;96485.84;;;11.25;69.98
34979;BME280;21185;50.978;13.720;2023-03-31T20:37:19;96492.25;;;11.22;69.95
34979;BME280;21185;50.978;13.720;2023-03-31T20:42:21;96495.84;;;11.21;69.94
34979;BME280;21185;50.978;13.720;2023-03-31T20:47:23;96490.28;;;11.18;70.41
34979;BME280;21185;50.978;13.720;2023-03-31T20:52:25;96496.09;;;11.13;70.54
34979;BME280;21185;50.978;13.720;2023-03-31T20:57:27;96493.13;;;11.10;70.71
34979;BME280;21185;50.978;13.720;2023-03-31T21:02:29;96499.75;;;11.06;70.82
34979;BME280;21185;50.978;13.720;2023-03-31T21:07:31;96494.75;;;11.04;71.05
34979;BME280;21185;50.978;13.720;2023-03-31T21:12:33;96504.75;;;11.00;71.60
34979;BME280;21185;50.978;13.720;2023-03-31T21:17:35;96502.38;;;10.99;71.41
34979;BME280;21185;50.978;13.720;2023-03-31T21:22:37;96503.59;;;10.96;71.64
34979;BME280;21185;50.978;13.720;2023-03-31T21:27:39;96507.97;;;10.96;71.55
34979;BME280;21185;50.978;13.720;2023-03-31T21:32:41;96505.38;;;10.96;71.75
34979;BME280;21185;50.978;13.720;2023-03-31T21:37:43;96503.59;;;10.96;71.68
34979;BME280;21185;50.978;13.720;2023-03-31T21:42:45;96502.78;;;10.96;71.83
34979;BME280;21185;50.978;13.720;2023-03-31T21:47:46;96498.00;;;10.93;71.82
34979;BME280;21185;50.978;13.720;2023-03-31T21:52:49;96501.03;;;10.90;72.03
34979;BME280;21185;50.978;13.720;2023-03-31T21:57:52;96490.84;;;10.88;72.15
34979;BME280;21185;50.978;13.720;2023-03-31T22:02:56;96491.66;;;10.89;72.14
34979;BME280;21185;50.978;13.720;2023-03-31T22:08:18;96505.63;;;10.88;72.17
34979;BME280;21185;50.978;13.720;2023-03-31T22:13:21;96490.25;;;10.86;72.07
34979;BME280;21185;50.978;13.720;2023-03-31T22:18:23;96493.66;;;10.87;72.00
34979;BME280;21185;50.978;13.720;2023-03-31T22:23:25;96494.44;;;10.87;72.03
34979;BME280;21185;50.978;13.720;2023-03-31T22:28:28;96494.66;;;10.86;72.02
34979;BME280;21185;50.978;13.720;2023-03-31T22:33:30;96492.06;;;10.86;72.10
34979;BME280;21185;50.978;13.720;2023-03-31T22:38:32;96498.03;;;10.86;71.96
34979;BME280;21185;50.978;13.720;2023-03-31T22:43:34;96503.44;;;10.85;72.16
34979;BME280;21185;50.978;13.720;2023-03-31T22:48:36;96494.84;;;10.84;71.95
34979;BME280;21185;50.978;13.720;2023-03-31T22:53:37;96497.44;;;10.84;72.04
34979;BME280;21185;50.978;13.720;2023-03-31T22:58:39;96485.69;;;10.82;71.98
34979;BME280;21185;50.978;13.720;2023-03-31T23:03:42;96478.91;;;10.81;72.03
34979;BME280;21185;50.978;13.720;2023-03-31T23:08:45;96480.91;;;10.79;72.14
34979;BME280;21185;50.978;13.720;2023-03-31T23:13:49;96495.47;;;10.80;72.40
34979;BME280;21185;50.978;13.720;2023-03-31T23:18:52;96490.50;;;10.78;72.40
34979;BME280;21185;50.978;13.720;2023-03-31T23:23:57;96485.50;;;10.77;72.61
34979;BME280;21185;50.978;13.720;2023-03-31T23:29:02;96483.91;;;10.76;72.84
34979;BME280;21185;50.978;13.720;2023-03-31T23:34:04;96483.34;;;10.74;72.92
34979;BME280;21185;50.978;13.720;2023-03-31T23:39:06;96476.56;;;10.73;73.13
34979;BME280;21185;50.978;13.720;2023-03-31T23:44:08;96479.34;;;10.71;73.13
34979;BME280;21185;50.978;13.720;2023-03-31T23:49:10;96492.31;;;10.71;73.17
34979;BME280;21185;50.978;13.720;2023-03-31T23:54:12;96491.31;;;10.72;73.04
34979;BME280;21185;50.978;13.720;2023-03-31T23:59:14;96488.72;;;10.72;73.16
